KATT

Austin City Airport

Austin, Texas, USA
METAR KATT 120951Z AUTO 15004KT 10SM OVC043 12/09 A3008 RMK AO2 SLP184 T01170089
Observed Flight Rules
Dec-12 @ 09:51 UTC (17 minutes ago) Visual Flight Rules
Wind Visibility Clouds
150° at 4 knots 10 miles
  • Overcast at 4,300' AGL
Temperatures Readings
Current 12°C / 54°F
Dewpoint 9°C / 48°F
Humidity 82%
Altimeter 30.08" Hg
Pressure 1018.4 hPa
Elevation 201
METAR KATT 120951Z AUTO 15004KT 10SM OVC043 12/09 A3008 RMK AO2 SLP184 T01170089
Observed Flight Rules
Dec-12 @ 09:51 UTC
(17 minutes ago)
VFR
Wind Visibility
150° at 4 knots 10 miles
Clouds
  • Overcast at 4,300' AGL
Temperature Dewpoint
12°C / 54°F 9°C / 48°F
Humidity Altimeter Pressure
82% 30.08" Hg 1018.4 hPa